createdAt,value
2018-12-15T00:02:06.517Z,78.89
2018-12-15T00:04:35.548Z,78.53
2018-12-15T00:07:04.736Z,78.76
2018-12-15T00:09:33.676Z,78.71
2018-12-15T00:12:02.932Z,79.40
2018-12-15T00:14:31.896Z,79.10
2018-12-15T00:17:05.745Z,79.02
2018-12-15T00:19:31.884Z,79.13
2018-12-15T00:22:00.940Z,78.93
2018-12-15T00:24:29.934Z,78.66
2018-12-15T00:26:58.988Z,78.24
2018-12-15T00:29:27.916Z,77.90
2018-12-15T00:31:57.053Z,77.20
2018-12-15T00:34:25.857Z,77.20
2018-12-15T00:36:54.742Z,77.35
2018-12-15T00:39:23.619Z,77.83
2018-12-15T00:41:52.624Z,78.31
2018-12-15T00:44:21.501Z,78.22
2018-12-15T00:46:50.547Z,78.69
2018-12-15T00:49:19.170Z,78.55
2018-12-15T00:51:48.007Z,77.79
2018-12-15T00:54:16.976Z,77.52
2018-12-15T00:56:45.968Z,77.15
2018-12-15T00:59:14.843Z,76.83
2018-12-15T01:01:43.766Z,77.61
2018-12-15T01:04:12.489Z,77.63
2018-12-15T01:06:41.175Z,77.10
2018-12-15T01:09:10.092Z,77.37
2018-12-15T01:11:38.995Z,77.88
2018-12-15T01:14:07.998Z,78.37
2018-12-15T01:16:36.948Z,78.20
2018-12-15T01:19:06.007Z,77.75
2018-12-15T01:21:34.731Z,77.69
2018-12-15T01:24:03.493Z,77.81
2018-12-15T01:26:32.540Z,77.77
2018-12-15T01:29:01.414Z,77.99
2018-12-15T01:31:30.416Z,78.42
2018-12-15T01:33:59.429Z,78.70
2018-12-15T01:36:28.427Z,78.96
2018-12-15T01:38:57.407Z,79.50
2018-12-15T01:41:26.193Z,79.42
2018-12-15T01:43:55.144Z,79.05
2018-12-15T01:46:24.529Z,78.72
2018-12-15T01:48:53.579Z,79.03
2018-12-15T01:51:22.339Z,79.33
2018-12-15T01:53:51.344Z,79.50
2018-12-15T01:56:20.179Z,79.66
2018-12-15T01:58:49.240Z,79.99
2018-12-15T02:01:18.068Z,79.84
2018-12-15T02:03:47.054Z,80.08
2018-12-15T02:06:15.756Z,79.48
2018-12-15T02:08:44.683Z,78.95
2018-12-15T02:11:13.684Z,78.81
2018-12-15T02:13:42.716Z,78.86
2018-12-15T02:16:11.372Z,79.18
2018-12-15T02:18:40.276Z,78.97
2018-12-15T02:21:09.064Z,79.72
2018-12-15T02:23:38.139Z,79.93
2018-12-15T02:26:07.217Z,80.35
2018-12-15T02:28:36.024Z,80.60
2018-12-15T02:31:05.061Z,80.53
2018-12-15T02:33:34.007Z,80.61
2018-12-15T02:36:03.016Z,79.59
2018-12-15T02:38:31.977Z,79.18
2018-12-15T02:41:01.025Z,79.47
2018-12-15T02:43:30.016Z,79.51
2018-12-15T02:45:59.123Z,80.01
2018-12-15T02:48:27.971Z,79.72
2018-12-15T02:50:56.942Z,79.67
2018-12-15T02:53:25.738Z,79.48
2018-12-15T02:55:54.886Z,79.33
2018-12-15T02:58:23.955Z,79.12
2018-12-15T03:00:52.976Z,79.62
2018-12-15T03:03:21.798Z,79.06
2018-12-15T03:05:50.802Z,79.14
2018-12-15T03:08:19.720Z,80.33
2018-12-15T03:10:48.571Z,80.02
2018-12-15T03:13:17.496Z,79.98
2018-12-15T03:15:46.428Z,79.94
2018-12-15T03:18:15.414Z,79.68
2018-12-15T03:20:53.975Z,79.08
2018-12-15T03:23:22.900Z,78.20
2018-12-15T03:25:51.941Z,77.98
2018-12-15T03:28:20.922Z,78.86
2018-12-15T03:30:49.907Z,78.97
2018-12-15T03:33:18.919Z,79.03
2018-12-15T03:35:47.915Z,79.41
2018-12-15T03:38:16.798Z,78.82
2018-12-15T03:40:45.459Z,78.91
2018-12-15T03:43:14.456Z,79.23
2018-12-15T03:45:43.310Z,79.36
2018-12-15T03:48:12.252Z,79.74
2018-12-15T03:50:41.308Z,78.87
2018-12-15T03:53:09.937Z,78.64
2018-12-15T03:55:38.681Z,78.51
2018-12-15T03:58:07.633Z,78.43
2018-12-15T04:00:36.663Z,77.41
2018-12-15T04:03:05.634Z,77.54
2018-12-15T04:05:34.629Z,77.59
2018-12-15T04:08:03.805Z,77.58
2018-12-15T04:10:32.545Z,76.98
2018-12-15T04:13:01.226Z,77.32
2018-12-15T04:15:30.140Z,77.25
2018-12-15T04:18:03.711Z,76.77
2018-12-15T04:20:29.716Z,77.13
2018-12-15T04:22:58.763Z,76.43
2018-12-15T04:25:27.778Z,76.48
2018-12-15T04:27:56.808Z,76.88
2018-12-15T04:30:25.529Z,77.24
2018-12-15T04:32:54.176Z,77.18
2018-12-15T04:35:23.232Z,77.44
2018-12-15T04:37:52.220Z,77.77
2018-12-15T04:40:21.615Z,77.25
2018-12-15T04:42:50.492Z,77.16
2018-12-15T04:45:19.401Z,77.34
2018-12-15T04:47:48.136Z,76.80
2018-12-15T04:50:17.139Z,76.56
2018-12-15T04:52:45.983Z,75.82
2018-12-15T04:55:14.952Z,74.76
2018-12-15T04:57:43.871Z,74.88
2018-12-15T05:00:12.829Z,74.89
2018-12-15T05:02:44.052Z,74.77
2018-12-15T05:05:12.957Z,75.28
2018-12-15T05:07:42.020Z,75.60
2018-12-15T05:10:10.881Z,76.79
2018-12-15T05:12:39.603Z,76.83
2018-12-15T05:15:08.749Z,76.59
2018-12-15T05:17:37.941Z,76.66
2018-12-15T05:20:07.454Z,76.85
2018-12-15T05:22:36.802Z,77.36
2018-12-15T05:25:06.816Z,77.05
2018-12-15T05:27:35.480Z,76.68
2018-12-15T05:30:05.075Z,76.34
2018-12-15T05:32:33.750Z,76.58
2018-12-15T05:35:02.525Z,76.69
2018-12-15T05:37:31.516Z,76.79
2018-12-15T05:40:00.400Z,76.99
2018-12-15T05:42:29.458Z,76.85
2018-12-15T05:44:58.590Z,77.54
2018-12-15T05:47:27.577Z,77.23
2018-12-15T05:49:56.627Z,77.36
2018-12-15T05:52:25.352Z,77.18
2018-12-15T05:54:54.337Z,77.22
2018-12-15T05:57:23.284Z,76.28
2018-12-15T05:59:52.295Z,76.47
2018-12-15T06:02:21.667Z,76.24
2018-12-15T06:04:51.332Z,76.69
2018-12-15T06:07:20.248Z,77.44
2018-12-15T06:09:48.899Z,77.96
2018-12-15T06:12:17.997Z,77.67
2018-12-15T06:14:46.914Z,77.74
2018-12-15T06:17:15.973Z,77.92
2018-12-15T06:19:44.926Z,78.07
2018-12-15T06:22:13.991Z,78.09
2018-12-15T06:24:42.962Z,77.39
2018-12-15T06:27:11.699Z,77.15
2018-12-15T06:29:40.822Z,77.01
2018-12-15T06:32:09.744Z,77.05
2018-12-15T06:34:38.731Z,76.57
2018-12-15T06:37:07.746Z,76.51
2018-12-15T06:39:36.779Z,76.82
2018-12-15T06:42:05.968Z,76.37
2018-12-15T06:44:35.063Z,76.28
2018-12-15T06:47:04.151Z,76.19
2018-12-15T06:49:33.345Z,76.36
2018-12-15T06:52:02.439Z,76.85
2018-12-15T06:54:31.501Z,76.58
2018-12-15T06:57:00.441Z,76.61
2018-12-15T06:59:29.297Z,76.68
2018-12-15T07:01:58.284Z,76.71
2018-12-15T07:04:26.886Z,76.52
2018-12-15T07:06:55.876Z,76.49
2018-12-15T07:09:24.831Z,76.50
2018-12-15T07:11:53.887Z,76.43
2018-12-15T07:14:22.936Z,76.62
2018-12-15T07:16:51.963Z,76.77
2018-12-15T07:19:20.617Z,76.75
2018-12-15T07:21:49.574Z,76.25
2018-12-15T07:24:18.482Z,76.35
2018-12-15T07:26:47.138Z,76.05
2018-12-15T07:29:16.215Z,75.61
2018-12-15T07:31:44.826Z,75.14
2018-12-15T07:34:13.949Z,75.67
2018-12-15T07:36:42.661Z,75.57
2018-12-15T07:39:11.633Z,75.71
2018-12-15T07:41:40.379Z,75.94
2018-12-15T07:44:09.336Z,76.02
2018-12-15T07:46:38.032Z,75.74
2018-12-15T07:49:07.011Z,75.77
2018-12-15T07:51:36.018Z,75.45
2018-12-15T07:54:04.899Z,75.46
2018-12-15T07:56:33.576Z,75.76
2018-12-15T07:59:02.668Z,75.85
2018-12-15T08:01:31.625Z,75.54
2018-12-15T08:04:00.624Z,75.96
2018-12-15T08:06:29.648Z,75.66
2018-12-15T08:08:58.557Z,76.04
2018-12-15T08:11:32.576Z,75.95
2018-12-15T08:14:06.709Z,76.02
2018-12-15T08:16:35.778Z,75.51
2018-12-15T08:19:05.929Z,75.54
2018-12-15T08:21:34.964Z,74.73
2018-12-15T08:24:04.148Z,75.14
2018-12-15T08:26:33.086Z,73.93
2018-12-15T08:29:01.770Z,74.33
2018-12-15T08:31:30.719Z,75.19
2018-12-15T08:33:59.510Z,74.68
2018-12-15T08:36:28.477Z,74.38
2018-12-15T08:38:57.272Z,74.62
2018-12-15T08:41:26.140Z,74.92
2018-12-15T08:43:55.079Z,75.06
2018-12-15T08:46:24.131Z,74.56
2018-12-15T08:48:53.288Z,74.93
2018-12-15T08:51:22.473Z,74.88
2018-12-15T08:53:51.356Z,74.66
2018-12-15T08:56:20.290Z,74.52
2018-12-15T08:58:49.320Z,75.35
2018-12-15T09:01:17.974Z,75.36
2018-12-15T09:03:46.736Z,74.84
2018-12-15T09:06:15.717Z,74.76
2018-12-15T09:08:44.676Z,74.76
2018-12-15T09:11:13.554Z,74.54
2018-12-15T09:13:42.466Z,74.31
2018-12-15T09:16:11.537Z,74.59
2018-12-15T09:18:40.199Z,73.72
2018-12-15T09:21:08.996Z,74.37
2018-12-15T09:23:37.741Z,74.56
2018-12-15T09:26:06.790Z,74.50
2018-12-15T09:28:35.849Z,74.23
2018-12-15T09:31:04.888Z,73.96
2018-12-15T09:33:33.565Z,73.91
2018-12-15T09:36:02.478Z,73.88
2018-12-15T09:38:31.070Z,73.49
2018-12-15T09:40:59.960Z,73.19
2018-12-15T09:43:28.892Z,73.60
2018-12-15T09:45:57.813Z,73.94
2018-12-15T09:48:26.797Z,73.88
2018-12-15T09:50:55.687Z,74.18
2018-12-15T09:53:24.542Z,74.52
2018-12-15T09:55:53.712Z,74.41
2018-12-15T09:58:22.463Z,74.50
2018-12-15T10:00:51.184Z,74.87
2018-12-15T10:03:20.285Z,74.90
2018-12-15T10:05:49.225Z,74.87
2018-12-15T10:08:18.138Z,74.46
2018-12-15T10:10:46.807Z,74.34
2018-12-15T10:13:15.839Z,74.10
2018-12-15T10:15:44.803Z,74.85
2018-12-15T10:18:13.558Z,74.83
2018-12-15T10:20:42.587Z,74.74
2018-12-15T10:23:11.649Z,74.95
2018-12-15T10:25:40.381Z,74.58
2018-12-15T10:28:09.397Z,74.15
2018-12-15T10:30:43.533Z,74.74
2018-12-15T10:33:12.543Z,74.74
2018-12-15T10:35:41.513Z,74.79
2018-12-15T10:38:10.544Z,75.00
2018-12-15T10:40:39.588Z,74.95
2018-12-15T10:43:08.541Z,75.12
2018-12-15T10:45:37.409Z,74.89
2018-12-15T10:48:06.320Z,74.84
2018-12-15T10:50:35.276Z,74.63
2018-12-15T10:53:04.044Z,74.84
2018-12-15T10:55:32.951Z,74.58
2018-12-15T10:58:01.877Z,74.38
2018-12-15T11:00:35.988Z,75.16
2018-12-15T11:03:05.187Z,75.63
2018-12-15T11:05:34.220Z,75.69
2018-12-15T11:08:03.216Z,76.01
2018-12-15T11:10:32.245Z,75.16
2018-12-15T11:13:01.047Z,75.62
2018-12-15T11:15:29.953Z,75.16
2018-12-15T11:17:58.914Z,75.31
2018-12-15T11:20:27.909Z,75.13
2018-12-15T11:22:57.004Z,75.61
2018-12-15T11:25:26.052Z,76.17
2018-12-15T11:27:54.987Z,75.76
2018-12-15T11:30:23.979Z,74.86
2018-12-15T11:32:53.020Z,74.20
2018-12-15T11:35:21.807Z,74.01
2018-12-15T11:37:50.857Z,74.74
2018-12-15T11:40:19.904Z,75.12
2018-12-15T11:42:48.970Z,75.28
2018-12-15T11:45:18.041Z,74.52
2018-12-15T11:47:47.007Z,75.51
2018-12-15T11:50:16.011Z,75.58
2018-12-15T11:52:45.014Z,75.75
2018-12-15T11:55:13.880Z,75.55
2018-12-15T11:57:42.708Z,75.39
2018-12-15T12:00:12.587Z,75.96
2018-12-15T12:02:41.797Z,76.04
2018-12-15T12:05:10.729Z,76.31
2018-12-15T12:07:39.848Z,76.51
2018-12-15T12:10:09.086Z,76.84
2018-12-15T12:12:38.076Z,77.00
2018-12-15T12:15:07.256Z,76.94
2018-12-15T12:17:36.332Z,77.80
2018-12-15T12:20:07.073Z,77.31
2018-12-15T12:22:35.923Z,76.78
2018-12-15T12:25:05.306Z,76.19
2018-12-15T12:27:34.167Z,76.36
2018-12-15T12:30:03.121Z,76.22
2018-12-15T12:32:32.605Z,75.64
2018-12-15T12:35:01.624Z,75.77
2018-12-15T12:37:30.458Z,75.30
2018-12-15T12:39:59.395Z,74.74
2018-12-15T12:42:28.157Z,74.88
2018-12-15T12:44:57.049Z,74.80
2018-12-15T12:47:26.043Z,74.48
2018-12-15T12:49:56.935Z,73.88
2018-12-15T12:52:25.813Z,73.69
2018-12-15T12:54:54.890Z,74.44
2018-12-15T12:57:23.958Z,74.39
2018-12-15T12:59:52.824Z,73.70
2018-12-15T13:02:21.685Z,74.04
2018-12-15T13:04:50.773Z,74.16
2018-12-15T13:07:19.862Z,74.08
2018-12-15T13:09:48.822Z,74.09
2018-12-15T13:12:17.888Z,73.99
2018-12-15T13:14:46.913Z,73.62
2018-12-15T13:17:16.010Z,74.25
2018-12-15T13:19:44.714Z,74.39
2018-12-15T13:22:14.777Z,73.83
2018-12-15T13:24:43.669Z,73.68
2018-12-15T13:27:12.425Z,74.39
2018-12-15T13:29:41.193Z,74.29
2018-12-15T13:32:10.144Z,74.03
2018-12-15T13:34:39.203Z,73.87
2018-12-15T13:37:08.277Z,73.62
2018-12-15T13:39:37.251Z,73.47
2018-12-15T13:42:07.162Z,74.07
2018-12-15T13:44:36.230Z,74.17
2018-12-15T13:47:04.867Z,74.56
2018-12-15T13:49:33.991Z,74.39
2018-12-15T13:52:03.042Z,74.63
2018-12-15T13:54:32.191Z,74.52
2018-12-15T13:57:01.222Z,74.67
2018-12-15T13:59:30.274Z,74.83
2018-12-15T14:01:59.163Z,75.05
2018-12-15T14:04:27.962Z,75.37
2018-12-15T14:06:56.840Z,74.64
2018-12-15T14:09:25.604Z,74.87
2018-12-15T14:11:54.541Z,75.67
2018-12-15T14:14:23.517Z,75.60
2018-12-15T14:16:52.554Z,75.37
2018-12-15T14:19:21.550Z,75.94
2018-12-15T14:21:50.571Z,76.40
2018-12-15T14:24:19.403Z,76.53
2018-12-15T14:26:48.516Z,76.65
2018-12-15T14:29:17.485Z,76.71
2018-12-15T14:31:46.435Z,76.41
2018-12-15T14:34:15.592Z,76.47
2018-12-15T14:36:44.344Z,76.64
2018-12-15T14:39:13.376Z,76.71
2018-12-15T14:41:42.423Z,76.86
2018-12-15T14:44:11.309Z,76.89
2018-12-15T14:46:40.311Z,76.95
2018-12-15T14:49:09.287Z,76.97
2018-12-15T14:51:38.311Z,77.10
2018-12-15T14:54:07.088Z,77.49
2018-12-15T14:56:36.100Z,77.81
2018-12-15T14:59:11.429Z,77.88
2018-12-15T15:01:40.145Z,77.93
2018-12-15T15:04:09.217Z,78.35
2018-12-15T15:06:38.245Z,78.53
2018-12-15T15:09:07.810Z,78.53
2018-12-15T15:11:36.886Z,78.50
2018-12-15T15:14:05.811Z,79.11
2018-12-15T15:16:34.863Z,78.87
2018-12-15T15:19:03.705Z,80.21
2018-12-15T15:21:32.698Z,80.08
2018-12-15T15:24:01.752Z,79.97
2018-12-15T15:26:30.781Z,79.56
2018-12-15T15:28:59.836Z,79.34
2018-12-15T15:31:28.695Z,79.45
2018-12-15T15:33:58.204Z,79.07
2018-12-15T15:36:28.179Z,79.33
2018-12-15T15:38:58.218Z,79.56
2018-12-15T15:41:27.104Z,79.78
2018-12-15T15:43:56.036Z,79.66
2018-12-15T15:46:24.739Z,80.00
2018-12-15T15:48:53.432Z,80.73
2018-12-15T15:51:22.302Z,80.87
2018-12-15T15:53:51.116Z,80.72
2018-12-15T15:56:19.945Z,80.43
2018-12-15T15:58:48.888Z,80.36
2018-12-15T16:01:17.795Z,80.75
2018-12-15T16:03:46.737Z,81.11
2018-12-15T16:06:15.826Z,81.40
2018-12-15T16:08:44.763Z,81.47
2018-12-15T16:11:14.140Z,81.69
2018-12-15T16:13:43.127Z,82.40
2018-12-15T16:16:22.863Z,81.86
2018-12-15T16:18:51.964Z,81.51
2018-12-15T16:21:20.979Z,81.32
2018-12-15T16:23:50.057Z,82.01
2018-12-15T16:26:18.920Z,81.72
2018-12-15T16:28:47.838Z,82.34
2018-12-15T16:31:16.771Z,81.94
2018-12-15T16:33:46.032Z,82.36
2018-12-15T16:36:15.061Z,82.49
2018-12-15T16:38:43.865Z,82.60
2018-12-15T16:41:12.549Z,82.36
2018-12-15T16:43:41.477Z,82.13
2018-12-15T16:46:10.468Z,82.24
2018-12-15T16:48:39.388Z,81.75
2018-12-15T16:51:08.352Z,81.33
2018-12-15T16:53:37.622Z,81.50
2018-12-15T16:56:06.499Z,81.39
2018-12-15T16:58:35.412Z,81.46
2018-12-15T17:01:04.592Z,81.32
2018-12-15T17:03:33.599Z,81.73
2018-12-15T17:06:02.707Z,82.05
2018-12-15T17:08:31.440Z,81.90
2018-12-15T17:11:00.604Z,81.88
2018-12-15T17:13:29.701Z,82.26
2018-12-15T17:15:58.430Z,82.56
2018-12-15T17:18:27.192Z,82.90
2018-12-15T17:20:56.863Z,83.06
2018-12-15T17:23:26.910Z,83.00
2018-12-15T17:25:55.642Z,82.63
2018-12-15T17:28:24.720Z,82.33
2018-12-15T17:30:53.816Z,81.30
2018-12-15T17:33:22.747Z,81.75
2018-12-15T17:35:51.645Z,81.64
2018-12-15T17:38:20.573Z,81.72
2018-12-15T17:40:49.634Z,82.04
2018-12-15T17:43:18.635Z,82.60
2018-12-15T17:45:47.543Z,82.65
2018-12-15T17:48:17.203Z,82.53
2018-12-15T17:50:47.041Z,82.66
2018-12-15T17:53:16.035Z,82.51
2018-12-15T17:55:45.009Z,82.24
2018-12-15T17:58:14.769Z,82.59
2018-12-15T18:00:44.231Z,82.42
2018-12-15T18:03:13.219Z,81.44
2018-12-15T18:05:42.156Z,81.98
2018-12-15T18:08:11.168Z,82.14
2018-12-15T18:10:40.260Z,82.20
2018-12-15T18:13:10.013Z,82.63
2018-12-15T18:15:38.953Z,82.73
2018-12-15T18:18:07.996Z,82.23
2018-12-15T18:20:37.140Z,81.97
2018-12-15T18:23:05.961Z,81.39
2018-12-15T18:25:34.966Z,81.92
2018-12-15T18:28:04.153Z,81.90
2018-12-15T18:30:33.161Z,82.31
2018-12-15T18:33:02.153Z,82.04
2018-12-15T18:35:31.722Z,82.35
2018-12-15T18:38:00.864Z,82.45
2018-12-15T18:40:29.633Z,82.70
2018-12-15T18:42:59.164Z,82.31
2018-12-15T18:45:28.075Z,81.89
2018-12-15T18:47:57.186Z,81.98
2018-12-15T18:50:26.187Z,81.87
2018-12-15T18:52:55.319Z,81.60
2018-12-15T18:55:25.220Z,82.06
2018-12-15T18:57:54.272Z,81.97
2018-12-15T19:00:23.017Z,81.53
2018-12-15T19:02:52.017Z,81.35
2018-12-15T19:05:20.838Z,81.51
2018-12-15T19:07:49.799Z,81.84
2018-12-15T19:10:18.888Z,82.24
2018-12-15T19:12:47.906Z,82.35
2018-12-15T19:15:16.867Z,82.70
2018-12-15T19:17:45.637Z,82.75
2018-12-15T19:20:14.456Z,83.01
2018-12-15T19:22:43.576Z,83.18
2018-12-15T19:25:13.100Z,82.75
2018-12-15T19:27:42.187Z,82.68
2018-12-15T19:30:12.004Z,82.29
2018-12-15T19:32:42.142Z,82.39
2018-12-15T19:35:11.666Z,82.30
2018-12-15T19:37:41.990Z,82.04
2018-12-15T19:40:10.995Z,81.58
2018-12-15T19:42:40.774Z,81.15
2018-12-15T19:45:09.893Z,81.79
2018-12-15T19:47:39.708Z,82.04
2018-12-15T19:50:09.339Z,81.75
2018-12-15T19:52:38.292Z,81.02
2018-12-15T19:55:07.564Z,81.36
2018-12-15T19:57:36.503Z,81.41
2018-12-15T20:00:05.940Z,81.80
2018-12-15T20:02:35.055Z,81.67
2018-12-15T20:05:04.045Z,81.87
2018-12-15T20:07:33.095Z,82.42
2018-12-15T20:10:02.209Z,82.63
2018-12-15T20:12:31.119Z,83.19
2018-12-15T20:15:00.188Z,83.39
2018-12-15T20:17:29.251Z,83.26
2018-12-15T20:19:58.241Z,83.33
2018-12-15T20:22:26.927Z,83.29
2018-12-15T20:24:56.602Z,83.28
2018-12-15T20:27:25.628Z,83.29
2018-12-15T20:29:54.640Z,83.43
2018-12-15T20:32:23.576Z,83.79
2018-12-15T20:34:52.543Z,83.86
2018-12-15T20:37:21.528Z,83.40
2018-12-15T20:39:50.189Z,83.53
2018-12-15T20:42:18.923Z,83.27
2018-12-15T20:44:48.484Z,83.34
2018-12-15T20:47:17.419Z,83.47
2018-12-15T20:49:46.045Z,83.40
2018-12-15T20:52:15.056Z,83.75
2018-12-15T20:54:44.057Z,83.56
2018-12-15T20:57:13.032Z,82.38
2018-12-15T20:59:41.887Z,82.16
2018-12-15T21:02:10.577Z,82.53
2018-12-15T21:04:39.585Z,82.65
2018-12-15T21:07:09.162Z,82.04
2018-12-15T21:09:38.188Z,82.43
2018-12-15T21:12:07.192Z,82.49
2018-12-15T21:14:36.260Z,82.44
2018-12-15T21:17:05.186Z,82.16
2018-12-15T21:19:33.960Z,82.62
2018-12-15T21:22:02.848Z,82.80
2018-12-15T21:24:31.840Z,82.70
2018-12-15T21:27:00.872Z,83.38
2018-12-15T21:29:29.490Z,83.02
2018-12-15T21:31:58.530Z,83.04
2018-12-15T21:34:27.546Z,83.39
2018-12-15T21:36:56.211Z,83.47
2018-12-15T21:39:24.881Z,83.86
2018-12-15T21:41:53.872Z,84.63
2018-12-15T21:44:23.024Z,84.25
2018-12-15T21:46:51.923Z,84.48
2018-12-15T21:49:20.586Z,84.10
2018-12-15T21:51:56.010Z,84.28
2018-12-15T21:54:20.141Z,84.43
2018-12-15T21:56:48.983Z,84.16
2018-12-15T21:59:18.036Z,84.83
2018-12-15T22:01:47.086Z,84.69
2018-12-15T22:04:16.069Z,84.96
2018-12-15T22:06:45.137Z,85.36
2018-12-15T22:09:14.148Z,85.29
2018-12-15T22:11:43.020Z,85.50
2018-12-15T22:14:12.020Z,85.32
2018-12-15T22:16:41.034Z,85.42
2018-12-15T22:19:10.008Z,85.44
2018-12-15T22:21:39.068Z,85.05
2018-12-15T22:24:07.782Z,84.84
2018-12-15T22:26:36.738Z,84.93
2018-12-15T22:29:05.668Z,84.62
2018-12-15T22:31:34.551Z,84.45
2018-12-15T22:34:03.340Z,84.65
2018-12-15T22:36:32.356Z,84.55
2018-12-15T22:39:01.334Z,84.21
2018-12-15T22:41:30.148Z,84.30
2018-12-15T22:43:58.869Z,84.27
2018-12-15T22:46:27.780Z,84.05
2018-12-15T22:48:56.623Z,83.83
2018-12-15T22:51:25.563Z,83.92
2018-12-15T22:53:54.447Z,83.84
2018-12-15T22:56:23.242Z,84.32
2018-12-15T22:58:52.047Z,84.71
2018-12-15T23:01:21.115Z,84.69
2018-12-15T23:03:50.040Z,84.80
2018-12-15T23:06:18.775Z,84.68
2018-12-15T23:08:47.668Z,84.87
2018-12-15T23:11:16.863Z,85.19
2018-12-15T23:13:45.739Z,85.50
2018-12-15T23:16:14.582Z,85.46
2018-12-15T23:18:43.352Z,85.37
2018-12-15T23:21:12.098Z,85.79
2018-12-15T23:23:40.825Z,86.04
2018-12-15T23:26:09.803Z,86.05
2018-12-15T23:28:38.601Z,86.02
2018-12-15T23:31:07.471Z,85.88
2018-12-15T23:33:36.279Z,85.74
2018-12-15T23:36:05.122Z,85.70
2018-12-15T23:38:34.078Z,85.82
2018-12-15T23:41:02.951Z,86.16
2018-12-15T23:43:31.927Z,86.02
2018-12-15T23:46:00.836Z,86.20
2018-12-15T23:48:29.808Z,85.92
2018-12-15T23:50:58.768Z,85.73
2018-12-15T23:53:27.990Z,85.82
2018-12-15T23:55:56.701Z,85.06
2018-12-15T23:58:25.652Z,84.94
